Lunenburg, Virginia
Current Conditions -  °F | °C
As of 6:15 AM on Wednesday 26 Nov 2014 (Local Time) from KW31 Reporting Station
Overcast Overcast  
Wind Chill: 40°   Ceiling: 700
Heat Index: 44°   Visibility: 3mi
Dew Point: 43°   Wind: 8mph
Humidity: 95%   Direction: 30°NNE
Pressure: 29.95"   Gusts: 21mph
Location:  36.96°N, 78.26°W
Report Text: KW31 261115Z AUTO 03007G18KT 3SM BKN007 BKN016 OVC065 07/06 A2995 RMK AO1 P0004 T00670060
Loading
Personal Weather Stations






























Interactive Weather Map New forecast layout! Learn more

10-Day Weather Forecast

Advertisements
Track Severe Weather on mobile